Time;durP1;ratioP1;P1;durP2;ratioP2;P2;SDS_P1;SDS_P2;PMS_P1;PMS_P2;Temp;Humidity;BMP_temperature;BMP_pressure;BME280_temperature;BME280_humidity;BME280_pressure;Samples;Min_cycle;Max_cycle;Signal;HPM_P1;HPM_P2
2022/01/12 00:00:09;;;;;;;7.28;4.85;;;;;;;22.30;33.87;101658.47;5018633;28;20422;-51
2022/01/12 00:02:35;;;;;;;5.90;4.93;;;;;;;22.70;33.08;101656.88;5024363;28;20055;-48
2022/01/12 00:05:01;;;;;;;5.85;5.03;;;;;;;22.88;33.06;101677.66;5020180;28;20033;-49
2022/01/12 00:07:26;;;;;;;6.40;4.63;;;;;;;23.01;32.31;101674.25;5023830;28;20105;-48
2022/01/12 00:09:51;;;;;;;5.65;4.70;;;;;;;23.09;32.34;101661.63;5023747;28;20053;-48
2022/01/12 00:12:17;;;;;;;6.10;4.88;;;;;;;23.13;32.29;101664.72;5016180;28;20052;-50
2022/01/12 00:14:42;;;;;;;5.78;4.95;;;;;;;23.02;32.28;101681.22;5024486;28;20471;-50
2022/01/12 00:17:08;;;;;;;5.45;4.68;;;;;;;22.22;33.75;101686.97;5026446;28;20356;-53
2022/01/12 00:19:33;;;;;;;8.40;4.53;;;;;;;21.42;35.32;101682.69;5027286;28;20041;-48
2022/01/12 00:21:59;;;;;;;5.32;4.30;;;;;;;20.84;36.31;101685.16;5020448;28;20037;-48
2022/01/12 00:24:27;;;;;;;7.22;5.25;;;;;;;20.51;36.94;101679.41;5020418;28;20033;-48
2022/01/12 00:35:05;;;;;;;7.82;5.00;;;;;;;19.85;38.26;101699.41;5024109;28;20048;-48
2022/01/12 00:37:30;;;;;;;7.85;4.45;;;;;;;19.79;38.47;101710.72;5036676;28;20033;-51
2022/01/12 00:39:58;;;;;;;4.97;3.95;;;;;;;19.75;38.42;101708.59;5025514;28;20098;-52
2022/01/12 00:42:27;;;;;;;5.18;4.47;;;;;;;19.71;38.64;101704.66;5017685;28;20072;-54
2022/01/12 00:44:54;;;;;;;5.82;4.38;;;;;;;19.67;38.79;101711.28;5020732;28;20359;-49
2022/01/12 00:47:19;;;;;;;4.10;3.22;;;;;;;19.66;38.92;101707.00;5016084;28;20064;-53
2022/01/12 00:49:45;;;;;;;4.45;3.70;;;;;;;19.64;38.86;101716.91;5030418;28;20060;-49
2022/01/12 00:52:10;;;;;;;5.00;3.80;;;;;;;19.62;38.87;101718.91;5025873;28;20447;-52
2022/01/12 00:54:37;;;;;;;4.75;3.60;;;;;;;19.59;38.98;101724.53;5027158;28;20455;-49
2022/01/12 00:57:02;;;;;;;5.53;3.85;;;;;;;19.58;38.96;101738.75;5017333;28;20037;-49
2022/01/12 00:59:28;;;;;;;4.40;3.75;;;;;;;19.56;38.92;101738.91;5024994;28;20083;-47
2022/01/12 01:01:54;;;;;;;4.22;3.58;;;;;;;19.60;38.80;101737.59;5022423;28;20079;-48
2022/01/12 01:04:19;;;;;;;4.65;3.63;;;;;;;20.18;37.65;101742.34;5018231;28;20034;-51
2022/01/12 01:06:45;;;;;;;5.55;3.67;;;;;;;20.99;35.97;101750.59;5022541;28;20018;-52
2022/01/12 01:09:10;;;;;;;4.30;3.42;;;;;;;21.58;34.89;101743.47;5021108;28;20046;-52
2022/01/12 01:11:36;;;;;;;4.18;3.22;;;;;;;21.95;33.79;101744.28;5022509;28;20021;-53
2022/01/12 01:14:11;;;;;;;4.60;3.42;;;;;;;22.22;33.59;101746.19;5018475;28;20033;-49
2022/01/12 01:27:18;;;;;;;4.00;3.33;;;;;;;21.20;34.74;101734.81;5021845;28;20417;-51
2022/01/12 01:29:43;;;;;;;4.40;3.67;;;;;;;20.65;35.76;101746.63;5028005;28;20111;-48
2022/01/12 01:32:09;;;;;;;4.40;3.30;;;;;;;20.32;36.43;101729.38;5025774;28;20076;-48
2022/01/12 01:34:42;;;;;;;3.60;3.30;;;;;;;20.11;36.94;101730.00;5031322;28;20025;-52
2022/01/12 01:37:07;;;;;;;4.43;3.55;;;;;;;19.94;37.02;101731.94;5024565;28;20091;-49
2022/01/12 01:39:33;;;;;;;3.25;2.83;;;;;;;19.83;37.22;101729.72;5026105;28;20060;-50
2022/01/12 01:42:13;;;;;;;5.15;3.40;;;;;;;19.73;37.27;101718.53;5025231;28;20421;-49
2022/01/12 01:55:18;;;;;;;3.33;2.80;;;;;;;19.39;37.61;101698.50;5026794;28;20056;-51
2022/01/12 01:57:43;;;;;;;3.70;3.28;;;;;;;19.35;37.78;101699.84;5026328;28;20416;-49
2022/01/12 02:00:13;;;;;;;3.65;3.22;;;;;;;19.33;37.62;101699.22;5028030;28;20054;-49
2022/01/12 02:02:39;;;;;;;3.80;2.90;;;;;;;19.31;37.66;101700.38;5023248;28;20076;-50
2022/01/12 02:05:06;;;;;;;3.20;2.80;;;;;;;19.28;37.55;101722.69;5027545;28;20029;-49
2022/01/12 02:07:34;;;;;;;4.50;3.15;;;;;;;19.23;37.55;101711.78;5025922;28;20037;-53
2022/01/12 02:10:00;;;;;;;3.33;2.47;;;;;;;19.48;37.15;101726.53;5026723;28;20072;-50
2022/01/12 02:12:27;;;;;;;3.17;2.55;;;;;;;20.46;35.41;101718.81;5024553;28;20485;-49
2022/01/12 02:14:54;;;;;;;3.97;2.85;;;;;;;21.34;33.83;101719.91;5027863;28;20038;-49
2022/01/12 02:17:24;;;;;;;3.17;2.53;;;;;;;21.91;32.30;101669.53;5026392;28;20518;-50
2022/01/12 02:36:09;;;;;;;2.70;2.38;;;;;;;20.50;34.81;101720.13;5026272;28;20052;-53
2022/01/12 02:41:39;;;;;;;3.20;2.38;;;;;;;19.76;36.28;101715.53;5024560;28;20044;-53
2022/01/12 02:54:46;;;;;;;3.97;2.47;;;;;;;19.22;36.99;101750.59;5025713;28;20041;-51
2022/01/12 02:57:12;;;;;;;2.42;1.92;;;;;;;19.18;37.04;101751.94;5023662;28;20033;-52
2022/01/12 02:59:48;;;;;;;3.85;2.10;;;;;;;19.14;37.08;101747.16;5024546;28;20444;-51
2022/01/12 03:03:03;;;;;;;3.13;2.10;;;;;;;19.09;37.09;101758.22;5023786;28;20052;-51
2022/01/12 03:05:22;;;;;;;3.45;2.22;;;;;;;19.00;37.22;101751.31;5016370;28;20042;-51
2022/01/12 03:07:45;;;;;;;2.13;1.70;;;;;;;18.97;37.47;101756.91;5022405;28;20568;-49
2022/01/12 03:10:12;;;;;;;2.45;1.85;;;;;;;18.97;37.56;101756.09;5030796;28;20125;-50
2022/01/12 03:12:41;;;;;;;5.57;2.47;;;;;;;18.97;37.49;101756.09;5027598;28;20064;-53
2022/01/12 03:15:07;;;;;;;2.80;2.20;;;;;;;18.95;37.48;101758.06;5029888;28;20047;-48
2022/01/12 03:17:34;;;;;;;2.60;1.77;;;;;;;19.07;37.11;101762.84;5029070;28;20116;-51
2022/01/12 03:19:59;;;;;;;3.50;2.30;;;;;;;19.78;35.67;101751.38;5030197;28;20087;-50
2022/01/12 03:22:25;;;;;;;2.38;1.90;;;;;;;20.47;34.67;101751.41;5030177;28;20037;-51
2022/01/12 03:24:50;;;;;;;3.83;2.10;;;;;;;20.91;33.67;101753.31;5029548;28;20061;-52
2022/01/12 03:27:16;;;;;;;3.03;1.88;;;;;;;21.16;33.27;101755.53;5029085;28;20145;-52
2022/01/12 03:29:44;;;;;;;2.95;1.90;;;;;;;21.35;32.76;101756.00;5029763;28;20037;-51
2022/01/12 03:32:12;;;;;;;3.78;1.80;;;;;;;21.48;32.69;101761.47;5029350;28;20159;-48
2022/01/12 03:34:41;;;;;;;3.03;1.35;;;;;;;21.55;32.35;101766.88;5030054;28;20061;-50
2022/01/12 03:39:50;;;;;;;2.33;1.90;;;;;;;21.42;32.44;101772.81;5029726;28;20186;-48
2022/01/12 03:42:16;;;;;;;2.42;1.75;;;;;;;20.75;33.66;101770.22;5029298;28;20485;-49
2022/01/12 03:44:42;;;;;;;2.35;1.88;;;;;;;20.18;34.80;101776.75;5028897;28;20535;-48
2022/01/12 03:47:07;;;;;;;2.85;1.90;;;;;;;19.83;35.42;101777.31;5030599;28;20112;-52
2022/01/12 03:49:32;;;;;;;1.90;1.45;;;;;;;19.61;35.88;101776.25;5026915;28;20065;-52
2022/01/12 03:51:58;;;;;;;2.55;1.98;;;;;;;19.46;36.18;101783.19;5027622;28;20493;-51
2022/01/12 03:54:23;;;;;;;2.80;1.88;;;;;;;19.35;36.46;101781.78;5026016;28;20082;-49
2022/01/12 03:56:49;;;;;;;2.88;1.70;;;;;;;19.27;36.55;101776.50;5027696;28;20070;-49
2022/01/12 03:59:14;;;;;;;2.30;1.90;;;;;;;19.20;36.60;101775.53;5029990;28;20040;-47
2022/01/12 04:01:40;;;;;;;2.97;1.75;;;;;;;19.14;36.76;101773.56;5028356;28;20082;-50
2022/01/12 04:04:09;;;;;;;3.08;1.10;;;;;;;19.09;36.82;101771.44;5029667;28;20588;-49
2022/01/12 04:09:20;;;;;;;2.05;1.42;;;;;;;18.99;36.95;101769.97;5029781;28;20206;-50
2022/01/12 04:11:45;;;;;;;2.20;1.35;;;;;;;18.95;36.95;101769.47;5025987;28;20037;-51
2022/01/12 04:14:12;;;;;;;1.67;1.15;;;;;;;18.92;37.14;101766.34;5029124;28;20033;-48
2022/01/12 04:16:38;;;;;;;2.10;1.52;;;;;;;18.87;37.17;101783.53;5029195;28;20115;-49
2022/01/12 04:19:04;;;;;;;2.63;1.55;;;;;;;18.84;37.16;101777.75;5029896;28;20664;-50
2022/01/12 04:21:31;;;;;;;3.58;1.42;;;;;;;18.81;37.27;101773.63;5027769;28;20094;-50
2022/01/12 04:23:58;;;;;;;2.28;1.35;;;;;;;18.79;37.18;101788.81;5028867;28;20238;-49
2022/01/12 04:26:30;;;;;;;1.70;1.30;;;;;;;18.75;37.18;101795.41;5028203;28;20064;-48
2022/01/12 04:28:55;;;;;;;1.92;1.20;;;;;;;18.74;37.12;101796.41;5028415;28;20035;-48
2022/01/12 04:31:21;;;;;;;1.40;1.20;;;;;;;19.41;35.84;101791.63;5026952;28;20029;-52
2022/01/12 04:33:46;;;;;;;2.42;1.38;;;;;;;20.35;33.94;101790.66;5026779;28;20081;-53
2022/01/12 04:36:13;;;;;;;1.80;1.20;;;;;;;20.99;32.71;101792.97;5029257;28;20052;-48
2022/01/12 04:38:40;;;;;;;2.30;1.33;;;;;;;21.42;32.04;101786.91;5028424;28;20060;-48
2022/01/12 04:41:08;;;;;;;2.25;1.42;;;;;;;21.67;31.71;101808.66;5028007;28;20033;-48
2022/01/12 04:43:36;;;;;;;2.30;1.05;;;;;;;21.84;31.20;101804.75;5027487;28;20029;-49
2022/01/12 04:48:37;;;;;;;1.83;1.25;;;;;;;21.93;30.96;101792.22;5023944;28;20846;-48
2022/01/12 04:51:02;;;;;;;1.50;0.88;;;;;;;21.78;31.25;101821.41;5027833;28;20029;-50
2022/01/12 04:53:30;;;;;;;2.30;1.30;;;;;;;20.98;32.58;101807.22;5032862;28;20034;-51
2022/01/12 04:55:57;;;;;;;1.60;1.00;;;;;;;20.25;33.71;101815.75;5028346;28;20065;-50
2022/01/12 04:58:22;;;;;;;1.98;1.40;;;;;;;19.77;34.69;101817.66;5028244;28;20416;-50
2022/01/12 05:00:51;;;;;;;1.70;0.98;;;;;;;19.46;35.06;101828.97;5027885;28;20025;-49
2022/01/12 05:13:57;;;;;;;2.60;1.00;;;;;;;18.89;36.59;101838.81;5027350;28;20149;-54
2022/01/12 05:16:24;;;;;;;3.00;1.20;;;;;;;18.95;36.73;101832.03;5027035;28;20122;-53
2022/01/12 05:18:51;;;;;;;1.77;0.98;;;;;;;18.97;36.64;101856.44;5027848;28;20044;-49
2022/01/12 05:21:19;;;;;;;2.58;1.02;;;;;;;18.95;37.36;101853.97;5022667;28;20041;-52
2022/01/12 05:23:45;;;;;;;3.53;1.10;;;;;;;18.95;37.82;101847.88;5028970;28;20026;-49
2022/01/12 05:26:11;;;;;;;2.65;1.17;;;;;;;18.94;37.86;101843.56;5025307;28;20148;-53
2022/01/12 05:28:40;;;;;;;4.30;0.93;;;;;;;18.95;38.12;101832.84;5027295;28;20025;-51
2022/01/12 05:31:07;;;;;;;6.80;1.00;;;;;;;18.95;38.14;101837.31;5022514;28;20034;-48
2022/01/12 05:33:34;;;;;;;1.67;0.77;;;;;;;18.95;38.23;101848.69;5027685;28;20025;-48
2022/01/12 05:36:03;;;;;;;3.75;0.85;;;;;;;18.96;38.64;101849.53;5027274;28;20060;-50
2022/01/12 05:38:28;;;;;;;1.88;0.75;;;;;;;18.99;38.84;101850.00;5027843;28;20033;-49
2022/01/12 05:40:58;;;;;;;8.18;0.93;;;;;;;19.24;38.22;101842.91;5026374;28;20127;-51
2022/01/12 05:43:25;;;;;;;2.75;1.40;;;;;;;20.24;36.43;101841.38;5026381;28;20489;-48
2022/01/12 05:45:52;;;;;;;5.88;1.13;;;;;;;21.09;34.42;101846.53;5027333;28;20500;-53
2022/01/12 05:50:46;;;;;;;2.03;0.82;;;;;;;21.93;32.95;101853.25;5025888;28;20405;-50
2022/01/12 05:53:14;;;;;;;1.75;0.70;;;;;;;22.12;32.58;101850.03;5027697;28;20030;-50
2022/01/12 05:55:40;;;;;;;1.80;1.02;;;;;;;22.29;32.18;101855.09;5028775;28;20029;-51
2022/01/12 05:58:05;;;;;;;2.75;0.70;;;;;;;22.39;31.98;101853.78;5026776;28;20102;-54
2022/01/12 06:00:31;;;;;;;2.90;1.30;;;;;;;22.45;31.90;101849.56;5023768;28;20071;-48
2022/01/12 06:02:56;;;;;;;1.40;0.88;;;;;;;22.16;31.95;101847.84;5027842;28;20026;-50
2022/01/12 06:05:23;;;;;;;1.67;0.98;;;;;;;21.46;32.92;101851.81;5026451;28;20033;-53
2022/01/12 06:07:50;;;;;;;1.60;0.80;;;;;;;20.92;33.88;101860.94;5027072;28;20470;-51
2022/01/12 06:10:18;;;;;;;4.45;1.00;;;;;;;20.54;34.59;101869.66;5027806;28;20397;-52
2022/01/12 06:12:44;;;;;;;2.38;1.10;;;;;;;20.32;34.91;101875.72;5026107;28;20041;-52
2022/01/12 06:15:10;;;;;;;4.30;0.98;;;;;;;20.18;35.26;101887.88;5026441;28;20501;-52
2022/01/12 06:17:36;;;;;;;1.35;0.90;;;;;;;20.06;35.21;101891.91;5028005;28;20059;-51
2022/01/12 06:20:06;;;;;;;1.90;0.90;;;;;;;19.98;35.33;101888.47;5026288;28;20025;-50
2022/01/12 06:22:31;;;;;;;1.23;0.82;;;;;;;19.91;35.49;101895.44;5028180;28;20456;-49
2022/01/12 06:24:59;;;;;;;2.15;1.02;;;;;;;19.85;35.47;101905.69;5027009;28;20076;-53
2022/01/12 06:27:29;;;;;;;1.77;0.88;;;;;;;19.80;35.69;101896.66;5026724;28;20207;-48
2022/01/12 06:32:20;;;;;;;2.33;1.15;;;;;;;19.71;35.73;101918.81;5026950;28;20457;-50
2022/01/12 06:34:45;;;;;;;1.98;1.17;;;;;;;19.67;36.02;101912.22;5027434;28;20025;-50
2022/01/12 06:37:11;;;;;;;3.92;1.20;;;;;;;19.63;36.05;101927.59;5027669;28;20041;-52
2022/01/12 06:39:38;;;;;;;1.40;0.82;;;;;;;19.59;36.08;101910.41;5030882;28;20160;-53
2022/01/12 06:42:04;;;;;;;1.75;1.13;;;;;;;19.58;36.05;101913.22;5031290;28;20248;-53
2022/01/12 06:44:29;;;;;;;2.33;1.23;;;;;;;19.54;36.22;101913.56;5032061;28;20222;-54
2022/01/12 06:46:57;;;;;;;1.50;0.60;;;;;;;19.52;36.09;101923.47;5029957;28;20029;-51
2022/01/12 06:49:23;;;;;;;3.28;0.90;;;;;;;19.52;36.10;101926.13;5032050;28;20064;-50
2022/01/12 06:51:48;;;;;;;3.13;0.70;;;;;;;19.52;36.08;101920.00;5031515;28;20037;-50
2022/01/12 06:54:16;;;;;;;2.25;0.93;;;;;;;20.30;34.54;101924.56;5028290;28;20458;-49
2022/01/12 06:56:41;;;;;;;1.77;0.80;;;;;;;21.56;31.90;101927.63;5031749;28;20061;-51
2022/01/12 06:59:07;;;;;;;2.28;0.75;;;;;;;22.43;30.66;101937.38;5031140;28;20064;-51
2022/01/12 07:01:33;;;;;;;1.35;0.70;;;;;;;22.97;29.73;101941.44;5030297;28;20417;-50
2022/01/12 07:03:58;;;;;;;1.00;0.55;;;;;;;23.26;29.43;101954.56;5031131;28;20358;-54
2022/01/12 07:06:24;;;;;;;2.05;1.02;;;;;;;23.46;28.96;101966.19;5031194;28;20561;-54
2022/01/12 07:08:49;;;;;;;1.42;0.90;;;;;;;23.67;28.52;101967.16;5031513;28;20048;-54
2022/01/12 07:11:15;;;;;;;2.30;0.88;;;;;;;23.67;28.70;101972.50;5031756;28;20036;-50
2022/01/12 07:13:41;;;;;;;1.50;0.77;;;;;;;23.71;28.75;101976.41;5032031;28;20023;-50
2022/01/12 07:16:06;;;;;;;3.40;0.82;;;;;;;22.96;29.66;101974.34;5031638;28;20420;-49
2022/01/12 07:18:32;;;;;;;1.50;0.82;;;;;;;21.98;30.81;101983.53;5030973;28;20040;-52
2022/01/12 07:20:58;;;;;;;1.10;0.73;;;;;;;21.34;31.79;101991.13;5031190;28;20064;-51
2022/01/12 07:23:25;;;;;;;2.35;0.93;;;;;;;20.93;32.56;102001.16;5029741;28;20091;-54
2022/01/12 07:25:52;;;;;;;1.77;0.70;;;;;;;20.64;32.86;101995.72;5028778;28;20037;-56
2022/01/12 07:28:18;;;;;;;1.92;0.70;;;;;;;20.40;33.42;101999.28;5027587;28;20042;-48
2022/01/12 07:30:43;;;;;;;4.25;0.77;;;;;;;20.25;33.75;102007.13;5028259;28;20075;-49
2022/01/12 07:33:09;;;;;;;1.40;0.70;;;;;;;20.15;34.09;101999.38;5029272;28;20033;-47
2022/01/12 07:35:35;;;;;;;3.35;0.93;;;;;;;20.06;34.34;101991.63;5029475;28;20036;-48
2022/01/12 07:38:00;;;;;;;1.60;0.75;;;;;;;20.00;35.30;101984.34;5027402;28;20088;-51
2022/01/12 07:40:26;;;;;;;5.75;0.93;;;;;;;19.94;35.65;101998.25;5027935;28;20385;-49
2022/01/12 07:42:51;;;;;;;7.93;1.13;;;;;;;19.87;35.50;101998.09;5029338;28;20033;-52
2022/01/12 07:45:18;;;;;;;3.70;0.60;;;;;;;19.83;35.64;101996.81;5030919;28;20025;-48
2022/01/12 07:47:44;;;;;;;1.50;0.82;;;;;;;19.78;35.83;102004.41;5030943;28;20033;-47
2022/01/12 07:50:10;;;;;;;4.05;0.82;;;;;;;19.74;36.04;102013.69;5030146;28;20030;-48
2022/01/12 07:52:36;;;;;;;6.38;0.70;;;;;;;19.69;36.07;102005.41;5031124;28;20026;-48
2022/01/12 07:55:03;;;;;;;2.30;0.82;;;;;;;19.65;36.16;102012.84;5030951;28;20090;-51
2022/01/12 07:57:28;;;;;;;3.53;1.13;;;;;;;19.63;36.14;102009.56;5028269;28;20037;-52
2022/01/12 07:59:54;;;;;;;6.40;0.85;;;;;;;19.65;36.34;102012.03;5029497;28;20029;-48
2022/01/12 08:02:20;;;;;;;4.45;0.95;;;;;;;19.67;36.47;102018.81;5010667;28;20022;-47
2022/01/12 08:04:45;;;;;;;5.18;0.80;;;;;;;20.23;36.18;102024.16;5025048;28;20033;-59
2022/01/12 08:07:11;;;;;;;2.42;0.93;;;;;;;21.26;34.27;102030.97;5028338;28;20025;-46
2022/01/12 08:09:41;;;;;;;4.43;1.15;;;;;;;22.03;33.29;102034.28;5028667;28;20041;-47
2022/01/12 08:12:08;;;;;;;1.33;0.60;;;;;;;22.39;32.58;102036.19;5028414;28;20215;-47
2022/01/12 08:14:34;;;;;;;1.45;0.55;;;;;;;22.71;31.67;102035.75;5029947;28;20030;-48
2022/01/12 08:17:00;;;;;;;1.75;0.73;;;;;;;22.88;31.29;102040.91;5027708;28;20058;-50
2022/01/12 08:19:27;;;;;;;2.70;0.98;;;;;;;22.94;31.41;102029.53;5030202;28;20017;-47
2022/01/12 08:21:52;;;;;;;4.75;0.95;;;;;;;23.21;30.83;102047.38;5027896;28;20576;-48
2022/01/12 08:24:18;;;;;;;4.13;0.88;;;;;;;;;;5030618;28;20095;-48
2022/01/12 08:26:44;;;;;;;2.90;0.68;;;;;;;22.72;31.45;102049.88;5030103;28;20049;-47
2022/01/12 08:29:13;;;;;;;3.05;1.02;;;;;;;21.85;32.60;102039.88;5028180;28;20320;-46
2022/01/12 08:31:38;;;;;;;3.47;0.93;;;;;;;21.20;33.54;102051.00;5027599;28;20033;-48
2022/01/12 08:34:03;;;;;;;2.25;0.95;;;;;;;20.82;33.62;102057.19;5029598;28;20041;-52
2022/01/12 08:36:29;;;;;;;3.88;1.50;;;;;;;20.57;34.04;102064.44;5030629;28;20025;-47
2022/01/12 08:38:55;;;;;;;4.40;1.38;;;;;;;20.36;34.88;102072.06;5028955;28;20078;-50
2022/01/12 08:41:21;;;;;;;17.83;2.05;;;;;;;20.21;35.06;102059.56;5029162;28;20108;-48
2022/01/12 08:43:48;;;;;;;10.15;1.45;;;;;;;20.13;35.23;102056.09;5027238;28;20026;-47
2022/01/12 08:46:13;;;;;;;11.75;1.60;;;;;;;20.05;35.49;102059.56;5029799;28;20061;-47
2022/01/12 08:48:39;;;;;;;30.15;2.08;;;;;;;19.98;35.66;102066.53;5028816;28;20474;-49
2022/01/12 08:51:04;;;;;;;23.67;2.03;;;;;;;19.91;35.71;102046.19;5025574;28;20037;-54
2022/01/12 08:53:29;;;;;;;12.63;1.50;;;;;;;19.86;36.05;102054.63;5021703;28;20045;-49
2022/01/12 08:55:55;;;;;;;9.00;1.50;;;;;;;19.80;36.09;102050.03;5026872;28;20025;-47
2022/01/12 08:58:21;;;;;;;7.05;1.77;;;;;;;19.72;35.51;102060.63;5026931;28;20148;-49
2022/01/12 09:00:46;;;;;;;6.38;1.67;;;;;;;19.67;35.13;102060.28;5016080;28;20044;-47
2022/01/12 09:03:12;;;;;;;6.82;1.58;;;;;;;19.63;35.46;102058.97;5014135;28;20030;-51
2022/01/12 09:05:38;;;;;;;9.30;2.08;;;;;;;19.57;35.45;102064.91;5017153;28;20034;-52
2022/01/12 09:08:05;;;;;;;10.30;1.40;;;;;;;19.53;35.69;102064.41;5023974;28;20072;-54
2022/01/12 09:10:31;;;;;;;12.20;1.95;;;;;;;19.52;35.69;102084.72;5014130;28;20382;-50
2022/01/12 09:12:56;;;;;;;8.43;2.17;;;;;;;19.50;35.80;102081.38;5019026;28;20073;-46
2022/01/12 09:15:25;;;;;;;8.40;2.47;;;;;;;19.57;32.13;102059.63;5025714;28;20044;-47
2022/01/12 09:17:53;;;;;;;9.38;2.60;;;;;;;20.69;29.10;102068.34;5022265;28;20416;-47
2022/01/12 09:20:19;;;;;;;9.80;2.75;;;;;;;21.44;27.87;102078.38;5017968;28;20107;-46
2022/01/12 09:22:45;;;;;;;5.18;2.40;;;;;;;21.94;27.88;102067.16;5019872;28;20108;-50
2022/01/12 09:25:12;;;;;;;8.93;2.42;;;;;;;22.50;27.50;102059.63;5020504;28;21098;-51
2022/01/12 09:27:38;;;;;;;19.27;3.33;;;;;;;22.78;27.62;102043.81;5022868;28;20089;-47
2022/01/12 09:30:09;;;;;;;10.43;2.80;;;;;;;23.01;27.25;102068.44;5023703;28;20120;-49
2022/01/12 09:32:35;;;;;;;9.93;2.20;;;;;;;23.14;27.37;102068.59;5024550;28;20343;-48
2022/01/12 09:35:01;;;;;;;9.93;2.53;;;;;;;22.98;28.13;102073.31;5023705;28;20039;-47
2022/01/12 09:37:27;;;;;;;10.48;2.42;;;;;;;22.56;28.80;102066.84;5024638;28;20036;-51
2022/01/12 09:39:53;;;;;;;7.20;2.17;;;;;;;21.64;30.52;102065.47;5022136;28;20033;-47
2022/01/12 09:42:19;;;;;;;9.93;2.35;;;;;;;20.96;31.65;102068.88;5025014;28;20029;-50
2022/01/12 09:44:46;;;;;;;7.53;2.40;;;;;;;20.52;32.20;102042.94;5026245;28;20021;-46
2022/01/12 09:47:12;;;;;;;6.13;2.15;;;;;;;20.23;33.05;102046.16;5026712;28;20493;-48
2022/01/12 09:49:38;;;;;;;4.32;2.30;;;;;;;20.03;33.17;102045.69;5019620;28;20072;-46
2022/01/12 09:52:04;;;;;;;5.88;1.75;;;;;;;19.89;33.53;102064.88;5023813;28;20486;-47
2022/01/12 09:54:30;;;;;;;4.93;1.60;;;;;;;19.75;33.97;102045.25;5019689;28;20498;-46
2022/01/12 09:56:59;;;;;;;8.95;2.10;;;;;;;19.69;34.05;102063.59;5017513;28;20108;-49
2022/01/12 09:59:26;;;;;;;10.10;2.17;;;;;;;19.61;34.43;102047.72;5026970;28;20033;-48
2022/01/12 10:01:54;;;;;;;8.50;2.38;;;;;;;19.55;34.19;102055.31;5024251;28;20021;-49
2022/01/12 10:04:30;;;;;;;5.50;1.90;;;;;;;19.46;34.38;102050.97;5021168;28;20045;-50
2022/01/12 10:07:01;;;;;;;5.25;2.45;;;;;;;19.42;34.41;102041.72;5014205;28;20026;-48
2022/01/12 10:09:41;;;;;;;7.63;2.03;;;;;;;19.34;34.78;102052.31;5024065;28;20029;-48
2022/01/12 10:12:15;;;;;;;9.85;1.85;;;;;;;19.27;34.79;102050.50;5021707;28;20033;-50
2022/01/12 10:14:52;;;;;;;3.42;1.63;;;;;;;19.21;35.06;102055.44;5024385;28;20045;-49
2022/01/12 10:17:19;;;;;;;5.93;1.98;;;;;;;19.20;35.00;102048.50;5021694;28;20045;-51
2022/01/12 10:19:45;;;;;;;4.10;1.65;;;;;;;19.18;34.90;102034.63;5018201;28;20108;-50
2022/01/12 10:22:16;;;;;;;6.65;1.77;;;;;;;19.16;34.77;102031.31;5013969;28;20029;-52
2022/01/12 10:24:45;;;;;;;6.70;2.38;;;;;;;19.19;35.12;102030.16;5021114;28;20099;-47
2022/01/12 10:27:16;;;;;;;5.38;1.90;;;;;;;19.79;34.36;102027.22;5020521;28;20128;-49
2022/01/12 10:29:43;;;;;;;6.95;2.35;;;;;;;20.56;33.15;102023.06;5018840;28;20033;-51
2022/01/12 10:32:09;;;;;;;14.73;3.10;;;;;;;21.26;32.27;102025.66;5020395;28;20124;-49
2022/01/12 10:34:41;;;;;;;16.33;3.40;;;;;;;21.62;31.78;102022.38;5022457;28;20113;-51
2022/01/12 10:37:12;;;;;;;18.02;4.15;;;;;;;21.90;31.24;102015.47;5020930;28;20531;-50
2022/01/12 10:39:40;;;;;;;17.70;3.47;;;;;;;21.86;31.76;102022.97;5023617;28;20037;-49
2022/01/12 10:42:08;;;;;;;17.67;4.20;;;;;;;21.89;31.78;102011.16;5022348;28;20033;-48
2022/01/12 10:44:37;;;;;;;17.30;5.25;;;;;;;22.07;31.15;102009.03;5022049;28;20076;-48
2022/01/12 10:47:07;;;;;;;15.40;4.35;;;;;;;21.92;31.31;102012.63;5019744;28;20124;-48
2022/01/12 10:49:33;;;;;;;10.35;3.97;;;;;;;21.32;31.13;102011.66;5021895;28;20048;-49
2022/01/12 10:51:59;;;;;;;14.20;4.07;;;;;;;20.75;31.31;102012.06;5020360;28;20036;-55
2022/01/12 10:54:25;;;;;;;17.45;4.43;;;;;;;20.31;31.86;102016.19;5022612;28;20030;-50
2022/01/12 10:56:51;;;;;;;14.45;3.97;;;;;;;20.01;32.22;102015.09;5022627;28;20064;-50
2022/01/12 10:59:19;;;;;;;11.43;4.00;;;;;;;19.83;32.50;102012.69;5024623;28;20038;-50
2022/01/12 11:01:44;;;;;;;11.25;3.95;;;;;;;19.68;32.79;102011.69;5023480;28;20064;-52
2022/01/12 11:04:10;;;;;;;13.48;4.28;;;;;;;19.55;32.97;102015.66;5027119;28;20770;-52
2022/01/12 11:06:37;;;;;;;12.98;3.75;;;;;;;19.48;33.53;102003.25;5026046;28;20497;-52
2022/01/12 11:09:04;;;;;;;7.90;3.47;;;;;;;19.45;33.66;102014.13;5017822;28;20038;-51
2022/01/12 11:11:29;;;;;;;16.15;4.65;;;;;;;19.39;34.00;102010.34;5021769;28;20068;-52
2022/01/12 11:13:55;;;;;;;11.98;3.42;;;;;;;19.38;34.20;102015.78;5025449;28;20053;-51
2022/01/12 11:16:22;;;;;;;15.07;3.50;;;;;;;19.28;34.71;102012.50;5021369;28;20390;-49
2022/01/12 11:18:49;;;;;;;8.95;3.05;;;;;;;19.22;34.65;102016.63;5025758;28;20029;-48
2022/01/12 11:21:21;;;;;;;7.88;2.92;;;;;;;19.16;34.75;102009.34;5023189;28;20437;-49
2022/01/12 11:23:47;;;;;;;7.90;2.90;;;;;;;19.15;34.51;102002.41;5016597;28;20501;-50
2022/01/12 11:26:22;;;;;;;8.63;2.65;;;;;;;19.08;34.35;101996.13;5026711;28;20041;-50
2022/01/12 11:28:51;;;;;;;8.05;3.55;;;;;;;19.06;34.54;101992.81;5028125;28;20024;-49
2022/01/12 11:31:22;;;;;;;6.72;2.65;;;;;;;19.02;34.54;101992.31;5030087;28;20113;-49
2022/01/12 11:33:47;;;;;;;7.55;2.88;;;;;;;19.00;34.43;101993.47;5027657;28;20022;-50
2022/01/12 11:36:26;;;;;;;10.38;3.13;;;;;;;18.97;34.55;101988.50;5030249;28;20045;-51
2022/01/12 11:38:59;;;;;;;9.88;3.03;;;;;;;19.62;33.57;101991.22;5029900;28;20124;-51
2022/01/12 11:41:28;;;;;;;8.95;2.70;;;;;;;20.56;31.63;101993.09;5030188;28;20493;-51
2022/01/12 11:44:12;;;;;;;6.10;3.10;;;;;;;21.26;30.83;101988.56;5029912;28;20426;-52
2022/01/12 11:46:55;;;;;;;7.03;2.78;;;;;;;21.59;30.09;101985.59;5029550;28;20044;-48
2022/01/12 11:49:30;;;;;;;5.28;2.72;;;;;;;21.83;29.55;101991.47;5025984;28;20026;-50
2022/01/12 11:51:57;;;;;;;3.23;2.20;;;;;;;22.02;29.57;101992.00;5025513;28;20446;-48
2022/01/12 11:54:36;;;;;;;4.38;2.28;;;;;;;21.92;30.06;101986.09;5033437;28;20056;-47
2022/01/12 11:57:08;;;;;;;6.13;2.05;;;;;;;22.13;30.11;101992.38;5024466;28;20441;-54
2022/01/12 11:59:49;;;;;;;6.57;2.25;;;;;;;21.73;30.81;101990.13;5028163;28;20029;-51
2022/01/12 12:02:16;;;;;;;4.65;2.15;;;;;;;20.95;31.63;101993.03;5023957;28;20575;-51
2022/01/12 12:04:56;;;;;;;8.18;2.55;;;;;;;20.27;32.67;101993.72;5024759;28;20025;-49
2022/01/12 12:07:23;;;;;;;4.82;1.98;;;;;;;19.88;33.71;101991.81;5036437;28;20036;-51
2022/01/12 12:09:54;;;;;;;10.32;2.92;;;;;;;19.65;34.04;101983.78;5027413;28;20081;-52
2022/01/12 12:12:30;;;;;;;5.90;2.58;;;;;;;19.46;34.26;101984.91;5024489;28;20022;-52
2022/01/12 12:14:58;;;;;;;7.85;2.13;;;;;;;19.40;34.29;101982.09;5024785;28;20445;-49
2022/01/12 12:17:29;;;;;;;4.57;1.98;;;;;;;19.32;34.58;101982.94;5026363;28;20033;-51
2022/01/12 12:19:55;;;;;;;3.45;2.33;;;;;;;19.28;34.91;101976.34;5027279;28;20033;-50
2022/01/12 12:22:30;;;;;;;5.97;2.38;;;;;;;19.20;34.59;101979.78;5028360;28;20056;-51
2022/01/12 12:25:03;;;;;;;5.32;1.92;;;;;;;19.18;34.79;101989.69;5026723;28;20051;-48
2022/01/12 12:27:31;;;;;;;7.55;2.55;;;;;;;19.15;34.69;101992.66;5022801;28;20140;-48
2022/01/12 12:29:57;;;;;;;3.17;2.03;;;;;;;19.08;34.90;101990.84;5026163;28;20079;-49
2022/01/12 12:32:33;;;;;;;3.15;1.60;;;;;;;18.99;34.90;101994.44;5024094;28;20036;-51
2022/01/12 12:35:08;;;;;;;4.95;1.92;;;;;;;18.97;35.29;101983.22;5030304;28;20023;-50
2022/01/12 12:37:40;;;;;;;9.75;2.10;;;;;;;18.94;35.09;101991.47;5024039;28;20315;-52
2022/01/12 12:40:16;;;;;;;5.40;2.35;;;;;;;18.92;35.09;101990.81;5027886;28;20026;-61
2022/01/12 12:42:41;;;;;;;7.05;2.15;;;;;;;18.92;35.17;101996.09;5022478;28;20033;-60
2022/01/12 12:45:08;;;;;;;6.90;2.20;;;;;;;18.92;35.16;101990.81;5025604;28;20026;-60
2022/01/12 12:47:34;;;;;;;6.07;2.80;;;;;;;18.90;34.90;101989.16;5029746;28;20270;-60